Time;durP1;ratioP1;P1;durP2;ratioP2;P2;SDS_P1;SDS_P2;PMS_P1;PMS_P2;Temp;Humidity;BMP_temperature;BMP_pressure;BME280_temperature;BME280_humidity;BME280_pressure;Samples;Min_cycle;Max_cycle;Signal;HPM_P1;HPM_P2
2021/05/02 00:02:09;;;;;;;0.60;0.53;;;7.00;99.90;;;;;;5029663;28;21321;-52
2021/05/02 00:04:37;;;;;;;0.90;0.60;;;7.10;99.90;;;;;;5013416;28;20460;-52
2021/05/02 00:07:04;;;;;;;0.60;0.50;;;7.10;99.90;;;;;;5013610;28;20457;-52
2021/05/02 00:09:32;;;;;;;0.70;0.63;;;7.10;99.90;;;;;;5013779;28;20453;-52
2021/05/02 00:12:00;;;;;;;0.60;0.50;;;7.10;99.90;;;;;;5013490;28;20501;-52
2021/05/02 00:14:28;;;;;;;0.60;0.50;;;7.20;99.90;;;;;;5013414;28;20453;-52
2021/05/02 00:16:55;;;;;;;1.07;0.70;;;7.20;99.90;;;;;;5013334;28;20456;-52
2021/05/02 00:19:22;;;;;;;0.70;0.60;;;7.20;99.90;;;;;;5012985;28;20483;-52
2021/05/02 00:21:51;;;;;;;0.80;0.70;;;7.30;99.90;;;;;;5013244;28;20554;-52
2021/05/02 00:24:21;;;;;;;0.70;0.70;;;7.20;99.90;;;;;;5013294;28;20448;-51
2021/05/02 00:26:48;;;;;;;0.50;0.50;;;7.10;99.90;;;;;;5013170;28;20488;-52
2021/05/02 00:29:16;;;;;;;0.67;0.60;;;7.00;99.90;;;;;;5013153;28;20829;-52
2021/05/02 00:31:45;;;;;;;0.60;0.50;;;7.00;99.90;;;;;;5012761;28;20499;-52
2021/05/02 00:34:12;;;;;;;0.60;0.50;;;6.90;99.90;;;;;;5013288;28;20593;-51
2021/05/02 00:36:40;;;;;;;0.90;0.60;;;7.00;99.90;;;;;;5004026;28;20453;-52
2021/05/02 00:39:07;;;;;;;1.27;0.50;;;7.10;99.90;;;;;;5013096;28;20993;-52
2021/05/02 00:41:35;;;;;;;0.90;0.60;;;7.10;99.90;;;;;;5012909;28;20572;-51
2021/05/02 00:44:04;;;;;;;0.50;0.40;;;6.90;99.90;;;;;;5013186;28;20518;-51
2021/05/02 00:46:36;;;;;;;0.93;0.50;;;6.70;99.90;;;;;;5013139;28;20446;-52
2021/05/02 00:49:13;;;;;;;0.50;0.40;;;6.80;99.90;;;;;;5012739;28;20458;-51
2021/05/02 00:51:42;;;;;;;1.20;0.60;;;6.80;99.90;;;;;;5013113;28;21001;-51
2021/05/02 00:54:16;;;;;;;0.70;0.50;;;6.90;99.90;;;;;;5013032;28;20457;-52
2021/05/02 00:56:59;;;;;;;0.50;0.43;;;6.80;99.90;;;;;;5012768;28;20468;-52
2021/05/02 00:59:43;;;;;;;0.50;0.40;;;6.80;99.90;;;;;;5012629;28;21029;-52
2021/05/02 01:02:12;;;;;;;0.50;0.50;;;6.80;99.90;;;;;;5034622;22;20534;-54
2021/05/02 01:04:41;;;;;;;0.60;0.50;;;6.80;99.90;;;;;;5012022;28;20510;-54
2021/05/02 01:07:15;;;;;;;0.70;0.50;;;6.90;99.90;;;;;;5012425;28;20485;-54
2021/05/02 01:09:41;;;;;;;0.70;0.50;;;6.70;99.90;;;;;;5012571;28;20544;-54
2021/05/02 01:12:12;;;;;;;0.60;0.50;;;6.70;99.90;;;;;;5029270;28;20891;-53
2021/05/02 01:14:43;;;;;;;0.80;0.50;;;6.80;99.90;;;;;;5031837;28;20459;-53
2021/05/02 01:17:12;;;;;;;0.50;0.40;;;6.70;99.90;;;;;;5032264;28;20467;-54
2021/05/02 01:19:39;;;;;;;0.77;0.50;;;6.60;99.90;;;;;;5031642;28;20495;-54
2021/05/02 01:22:13;;;;;;;0.60;0.50;;;6.50;99.90;;;;;;5031868;28;20495;-54
2021/05/02 01:24:44;;;;;;;0.70;0.60;;;6.50;99.90;;;;;;5031730;28;20444;-54
2021/05/02 01:27:15;;;;;;;0.60;0.50;;;6.30;99.90;;;;;;5031634;28;20783;-54
2021/05/02 01:29:42;;;;;;;0.80;0.53;;;6.20;99.90;;;;;;5031957;28;20512;-54
2021/05/02 01:32:08;;;;;;;0.70;0.40;;;6.20;99.90;;;;;;5032134;28;20801;-54
2021/05/02 01:34:35;;;;;;;2.50;0.50;;;6.00;99.90;;;;;;5031644;28;20481;-54
2021/05/02 01:37:02;;;;;;;0.50;0.40;;;6.00;99.90;;;;;;5031354;28;20487;-54
2021/05/02 01:39:30;;;;;;;0.70;0.50;;;6.00;99.90;;;;;;5031040;28;20456;-54
2021/05/02 01:41:57;;;;;;;0.50;0.30;;;6.00;99.90;;;;;;5031365;28;20554;-54
2021/05/02 01:44:27;;;;;;;0.50;0.40;;;6.10;99.90;;;;;;5031118;28;20459;-54
2021/05/02 01:46:56;;;;;;;0.60;0.60;;;6.00;99.90;;;;;;5031642;28;20498;-54
2021/05/02 01:49:24;;;;;;;0.50;0.30;;;5.90;99.90;;;;;;5031582;28;20472;-54
2021/05/02 01:51:50;;;;;;;0.50;0.40;;;5.80;99.90;;;;;;5031139;28;20556;-54
2021/05/02 01:54:17;;;;;;;0.50;0.40;;;5.90;99.90;;;;;;5030633;28;20456;-54
2021/05/02 01:56:45;;;;;;;0.53;0.40;;;6.00;99.90;;;;;;5031595;28;20460;-54
2021/05/02 01:59:14;;;;;;;0.60;0.40;;;5.90;99.90;;;;;;5031461;28;20986;-54
2021/05/02 02:01:40;;;;;;;0.80;0.47;;;6.10;99.90;;;;;;5031006;28;20499;-54
2021/05/02 02:04:08;;;;;;;0.60;0.40;;;5.90;99.90;;;;;;5030941;28;21149;-54
2021/05/02 02:06:35;;;;;;;0.60;0.40;;;5.80;99.90;;;;;;5011057;28;20471;-54
2021/05/02 02:09:05;;;;;;;0.60;0.40;;;5.80;99.90;;;;;;5020938;28;20816;-54
2021/05/02 02:11:32;;;;;;;0.60;0.50;;;5.90;99.90;;;;;;5031116;28;20465;-54
2021/05/02 02:13:59;;;;;;;0.80;0.50;;;5.90;99.90;;;;;;5034374;28;20453;-54
2021/05/02 02:16:27;;;;;;;1.03;0.50;;;5.90;99.90;;;;;;5037548;28;20502;-54
2021/05/02 02:18:54;;;;;;;1.77;0.40;;;5.80;99.90;;;;;;5037078;28;20449;-54
2021/05/02 02:21:23;;;;;;;0.70;0.50;;;5.90;99.90;;;;;;5037463;28;20525;-54
2021/05/02 02:23:54;;;;;;;0.50;0.40;;;5.70;99.90;;;;;;5037541;28;20452;-54
2021/05/02 02:26:28;;;;;;;0.90;0.40;;;5.80;99.90;;;;;;5037515;28;20459;-54
2021/05/02 02:28:55;;;;;;;0.60;0.40;;;5.70;99.90;;;;;;5037728;28;20468;-54
2021/05/02 02:31:22;;;;;;;0.50;0.40;;;5.70;99.90;;;;;;5037420;28;20550;-53
2021/05/02 02:33:51;;;;;;;0.50;0.40;;;5.80;99.90;;;;;;5036930;28;20448;-54
2021/05/02 02:36:18;;;;;;;0.80;0.50;;;5.80;99.90;;;;;;5024953;28;20776;-54
2021/05/02 02:38:45;;;;;;;0.80;0.50;;;5.80;99.90;;;;;;5017871;28;20453;-54
2021/05/02 02:41:15;;;;;;;0.60;0.40;;;5.80;99.90;;;;;;5027676;28;20496;-54
2021/05/02 02:43:51;;;;;;;0.50;0.40;;;5.80;99.90;;;;;;5037455;28;20452;-54
2021/05/02 02:46:19;;;;;;;0.50;0.40;;;5.80;99.90;;;;;;5037336;28;20436;-54
2021/05/02 02:48:50;;;;;;;0.80;0.57;;;5.70;99.90;;;;;;5037382;28;20835;-55
2021/05/02 02:51:20;;;;;;;0.70;0.50;;;5.80;99.90;;;;;;5036953;28;20468;-54
2021/05/02 02:53:48;;;;;;;0.57;0.57;;;5.70;99.90;;;;;;5037441;28;20444;-54
2021/05/02 02:56:18;;;;;;;0.73;0.63;;;5.60;99.90;;;;;;5036856;28;20448;-54
2021/05/02 02:58:52;;;;;;;3.03;0.53;;;5.60;99.90;;;;;;5017593;28;20561;-54
2021/05/02 03:01:18;;;;;;;0.60;0.60;;;5.70;99.90;;;;;;5017717;28;20480;-53
2021/05/02 03:03:46;;;;;;;1.00;0.77;;;5.70;99.90;;;;;;5017916;28;20455;-54
2021/05/02 03:06:13;;;;;;;1.10;0.90;;;5.80;99.90;;;;;;5030339;28;20481;-54
2021/05/02 03:08:41;;;;;;;1.00;0.90;;;5.90;99.90;;;;;;5057279;28;20968;-54
2021/05/02 03:11:09;;;;;;;0.97;0.83;;;5.80;99.90;;;;;;5049003;28;20530;-53
2021/05/02 03:13:35;;;;;;;1.23;1.13;;;5.90;99.90;;;;;;5037206;28;20446;-54
2021/05/02 03:16:03;;;;;;;1.53;0.90;;;5.90;99.90;;;;;;5036939;28;20456;-54
2021/05/02 03:18:33;;;;;;;2.63;1.40;;;5.80;99.90;;;;;;5037124;28;20456;-54
2021/05/02 03:21:04;;;;;;;1.47;1.17;;;5.70;99.90;;;;;;5037104;28;20476;-54
2021/05/02 03:23:33;;;;;;;1.07;0.80;;;5.80;99.90;;;;;;5036508;28;20808;-53
2021/05/02 03:26:03;;;;;;;0.73;0.60;;;5.90;99.90;;;;;;5034264;28;20459;-54
2021/05/02 03:28:35;;;;;;;0.60;0.50;;;5.90;99.90;;;;;;5033527;28;20461;-53
2021/05/02 03:31:04;;;;;;;0.60;0.60;;;6.00;99.90;;;;;;5033712;28;20476;-54
2021/05/02 03:33:35;;;;;;;0.70;0.60;;;6.00;99.90;;;;;;5033869;28;20457;-54
2021/05/02 03:36:10;;;;;;;0.50;0.40;;;6.10;99.90;;;;;;5033681;28;20820;-53
2021/05/02 03:38:45;;;;;;;0.80;0.60;;;6.10;99.90;;;;;;5033442;28;20461;-54
2021/05/02 03:41:13;;;;;;;0.70;0.60;;;6.10;99.90;;;;;;5033672;28;20468;-54
2021/05/02 03:43:39;;;;;;;0.50;0.40;;;6.10;99.90;;;;;;5033171;28;20484;-54
2021/05/02 03:46:22;;;;;;;0.53;0.40;;;6.10;99.90;;;;;;5033078;28;20453;-54
2021/05/02 03:48:49;;;;;;;0.50;0.40;;;6.10;99.90;;;;;;5033531;28;20911;-54
2021/05/02 03:51:15;;;;;;;0.87;0.40;;;6.20;99.90;;;;;;5033620;28;20483;-54
2021/05/02 03:53:42;;;;;;;0.50;0.40;;;6.20;99.90;;;;;;5033686;28;20447;-54
2021/05/02 03:56:08;;;;;;;0.50;0.40;;;6.30;99.90;;;;;;5033114;28;20965;-54
2021/05/02 03:58:36;;;;;;;0.60;0.50;;;6.30;99.90;;;;;;5033255;28;20842;-54
2021/05/02 04:01:02;;;;;;;0.60;0.50;;;6.20;99.90;;;;;;5033191;28;20484;-54
2021/05/02 04:03:29;;;;;;;0.50;0.50;;;6.20;99.90;;;;;;5033099;28;20483;-54
2021/05/02 04:05:55;;;;;;;0.60;0.50;;;6.20;99.90;;;;;;5033271;28;20450;-54
2021/05/02 04:08:21;;;;;;;0.60;0.50;;;6.10;99.90;;;;;;5033371;28;20451;-54
2021/05/02 04:10:48;;;;;;;1.27;0.50;;;6.20;99.90;;;;;;5033296;28;20482;-53
2021/05/02 04:13:14;;;;;;;0.60;0.40;;;6.20;99.90;;;;;;5033100;28;20441;-54
2021/05/02 04:15:42;;;;;;;0.60;0.50;;;6.10;99.90;;;;;;5032935;28;20440;-53
2021/05/02 04:18:08;;;;;;;0.60;0.50;;;6.20;99.90;;;;;;5033045;28;20457;-54
2021/05/02 04:20:34;;;;;;;0.77;0.77;;;6.20;99.90;;;;;;5033125;28;20468;-54
2021/05/02 04:23:01;;;;;;;0.80;0.80;;;6.20;99.90;;;;;;5033139;28;20480;-54
2021/05/02 04:25:27;;;;;;;0.60;0.50;;;6.20;99.90;;;;;;5032801;28;20449;-53
2021/05/02 04:27:54;;;;;;;0.67;0.50;;;6.10;99.90;;;;;;5033011;28;20455;-54
2021/05/02 04:30:20;;;;;;;0.60;0.40;;;6.00;99.90;;;;;;5032588;28;20476;-54
2021/05/02 04:32:48;;;;;;;0.50;0.40;;;6.00;99.90;;;;;;5032685;28;20972;-54
2021/05/02 04:35:14;;;;;;;0.60;0.50;;;5.90;99.90;;;;;;5031890;28;20452;-54
2021/05/02 04:37:41;;;;;;;0.63;0.50;;;5.90;99.90;;;;;;5032152;28;20522;-54
2021/05/02 04:40:08;;;;;;;0.63;0.60;;;5.90;99.90;;;;;;5032457;28;21000;-54
2021/05/02 04:42:34;;;;;;;0.70;0.57;;;5.90;99.90;;;;;;5032415;28;20487;-54
2021/05/02 04:45:01;;;;;;;0.60;0.50;;;5.90;99.90;;;;;;5032006;28;20450;-53
2021/05/02 04:47:27;;;;;;;0.60;0.50;;;5.90;99.90;;;;;;5032378;28;20448;-53
2021/05/02 04:49:55;;;;;;;0.60;0.53;;;6.00;99.90;;;;;;5032496;28;20459;-54
2021/05/02 04:52:21;;;;;;;0.63;0.60;;;5.90;99.90;;;;;;5031808;28;20465;-54
2021/05/02 04:54:48;;;;;;;0.70;0.50;;;6.00;99.90;;;;;;5032088;28;20452;-54
2021/05/02 04:57:14;;;;;;;0.60;0.40;;;6.00;99.90;;;;;;5032269;28;20845;-54
2021/05/02 04:59:41;;;;;;;0.57;0.50;;;6.00;99.90;;;;;;5032284;28;20479;-54
2021/05/02 05:02:07;;;;;;;0.50;0.40;;;6.00;99.90;;;;;;5031544;28;20510;-54
2021/05/02 05:04:34;;;;;;;0.77;0.50;;;5.90;99.90;;;;;;5031732;28;20452;-54
2021/05/02 05:07:01;;;;;;;0.60;0.60;;;5.80;99.90;;;;;;5031733;28;20448;-54
2021/05/02 05:09:28;;;;;;;0.50;0.40;;;5.80;99.90;;;;;;5031935;28;20525;-54
2021/05/02 05:11:54;;;;;;;0.50;0.40;;;5.70;99.90;;;;;;5031470;28;20468;-54
2021/05/02 05:14:21;;;;;;;0.70;0.60;;;5.90;99.90;;;;;;5031441;28;20503;-54
2021/05/02 05:16:47;;;;;;;0.60;0.57;;;5.90;99.90;;;;;;5031321;28;20451;-54
2021/05/02 05:19:14;;;;;;;0.90;0.70;;;5.90;99.90;;;;;;5031551;28;20982;-54
2021/05/02 05:21:40;;;;;;;1.30;0.70;;;5.90;99.90;;;;;;5031893;28;20476;-54
2021/05/02 05:24:09;;;;;;;0.93;0.83;;;6.00;99.90;;;;;;5031743;28;20510;-54
2021/05/02 05:26:35;;;;;;;0.90;0.70;;;6.00;99.90;;;;;;5031174;28;20459;-54
2021/05/02 05:29:02;;;;;;;1.40;1.30;;;6.00;99.90;;;;;;5031448;28;20441;-54
2021/05/02 05:31:29;;;;;;;1.20;0.97;;;5.90;99.90;;;;;;5031059;28;20471;-54
2021/05/02 05:33:55;;;;;;;0.80;0.80;;;5.90;99.90;;;;;;5031322;28;20446;-54
2021/05/02 05:36:22;;;;;;;0.90;0.83;;;6.00;99.90;;;;;;5031136;28;20448;-54
2021/05/02 05:38:48;;;;;;;0.90;0.70;;;5.90;99.90;;;;;;5030998;28;20449;-54
2021/05/02 05:41:15;;;;;;;0.90;0.60;;;5.90;99.90;;;;;;5031544;28;20464;-54
2021/05/02 05:43:42;;;;;;;0.93;0.83;;;5.90;99.90;;;;;;5031505;28;20482;-54
2021/05/02 05:46:13;;;;;;;1.57;0.90;;;5.90;99.90;;;;;;5030907;28;20450;-54
2021/05/02 05:48:40;;;;;;;2.60;1.30;;;6.00;99.90;;;;;;5030073;28;20460;-54
2021/05/02 05:51:08;;;;;;;1.67;0.93;;;6.10;99.90;;;;;;5031263;28;20603;-54
2021/05/02 05:53:35;;;;;;;1.10;0.87;;;6.10;99.90;;;;;;5031464;28;20448;-54
2021/05/02 05:56:01;;;;;;;1.23;1.00;;;6.20;99.90;;;;;;5031210;28;20471;-54
2021/05/02 05:58:31;;;;;;;1.47;1.13;;;6.10;99.90;;;;;;5031628;28;20473;-54
2021/05/02 06:00:57;;;;;;;1.83;1.63;;;6.20;99.90;;;;;;5031275;28;20485;-54
2021/05/02 06:03:23;;;;;;;2.53;1.37;;;6.20;99.90;;;;;;5029957;28;21002;-54
2021/05/02 06:05:50;;;;;;;2.27;1.27;;;6.20;99.90;;;;;;5029744;28;20453;-54
2021/05/02 06:08:17;;;;;;;1.20;1.07;;;6.20;99.90;;;;;;5029672;28;20453;-54
2021/05/02 06:10:43;;;;;;;1.30;1.17;;;6.20;99.90;;;;;;5025036;28;20995;-54
2021/05/02 06:13:10;;;;;;;1.30;1.20;;;6.20;99.90;;;;;;5024779;28;20502;-54
2021/05/02 06:15:37;;;;;;;1.77;1.27;;;6.50;99.90;;;;;;5031047;28;20451;-54
2021/05/02 06:18:04;;;;;;;1.20;1.10;;;6.50;99.90;;;;;;5030339;28;20461;-54
2021/05/02 06:20:30;;;;;;;2.03;1.37;;;6.60;99.90;;;;;;5030954;28;20502;-54
2021/05/02 06:22:57;;;;;;;2.47;1.43;;;6.60;99.90;;;;;;5030916;28;20473;-53
2021/05/02 06:25:23;;;;;;;1.20;1.10;;;6.60;99.90;;;;;;5030967;28;20445;-54
2021/05/02 06:27:50;;;;;;;1.67;1.57;;;6.60;99.90;;;;;;5030936;28;20495;-54
2021/05/02 06:30:17;;;;;;;1.20;1.10;;;6.60;99.90;;;;;;5030721;28;20448;-54
2021/05/02 06:32:45;;;;;;;1.20;1.00;;;6.70;99.90;;;;;;5030869;28;20452;-54
2021/05/02 06:35:12;;;;;;;1.17;1.00;;;6.70;99.90;;;;;;5030175;28;20453;-54
2021/05/02 06:37:38;;;;;;;1.30;1.20;;;6.60;99.90;;;;;;5030383;28;20453;-54
2021/05/02 06:40:06;;;;;;;2.13;1.40;;;6.70;99.90;;;;;;5030982;28;20447;-54
2021/05/02 06:42:32;;;;;;;2.67;1.70;;;6.70;99.90;;;;;;5027251;28;20488;-54
2021/05/02 06:45:00;;;;;;;1.93;1.73;;;6.70;99.90;;;;;;5029510;28;20520;-54
2021/05/02 06:47:26;;;;;;;1.73;1.63;;;6.90;99.90;;;;;;5028449;28;20460;-53
2021/05/02 06:49:54;;;;;;;1.70;1.60;;;6.80;99.90;;;;;;5024697;28;20607;-54
2021/05/02 06:52:20;;;;;;;2.50;1.70;;;6.80;99.90;;;;;;5022118;28;20525;-53
2021/05/02 06:54:47;;;;;;;2.37;2.17;;;6.90;99.90;;;;;;5022641;28;20706;-54
2021/05/02 06:57:15;;;;;;;2.63;2.23;;;7.10;99.90;;;;;;5021333;28;20464;-54
2021/05/02 06:59:42;;;;;;;2.30;2.10;;;7.10;99.90;;;;;;5023992;28;20842;-54
2021/05/02 07:02:08;;;;;;;4.00;2.87;;;7.00;99.90;;;;;;5020725;23;20498;-51
2021/05/02 07:04:37;;;;;;;3.37;2.53;;;7.00;99.90;;;;;;4985937;28;20461;-51
2021/05/02 07:07:05;;;;;;;2.63;2.30;;;7.00;99.90;;;;;;4988247;28;20466;-51
2021/05/02 07:09:32;;;;;;;2.50;2.30;;;7.10;99.90;;;;;;5000424;28;20468;-51
2021/05/02 07:11:59;;;;;;;3.03;2.30;;;7.20;99.90;;;;;;5005223;28;20472;-51
2021/05/02 07:14:26;;;;;;;3.13;2.70;;;7.10;99.90;;;;;;5013151;28;20441;-50
2021/05/02 07:16:52;;;;;;;3.00;2.57;;;7.20;99.90;;;;;;5011995;28;20480;-51
2021/05/02 07:19:21;;;;;;;2.50;2.30;;;7.10;99.90;;;;;;5007684;28;20501;-52
2021/05/02 07:21:47;;;;;;;3.23;2.90;;;7.20;99.90;;;;;;5005821;28;20531;-52
2021/05/02 07:24:16;;;;;;;3.40;3.10;;;7.10;99.90;;;;;;5012826;28;20973;-52
2021/05/02 07:26:43;;;;;;;3.27;2.63;;;7.20;99.90;;;;;;5004844;28;20532;-51
2021/05/02 07:29:09;;;;;;;2.60;2.40;;;7.10;99.90;;;;;;5014233;28;20458;-51
2021/05/02 07:31:36;;;;;;;5.27;3.73;;;7.10;99.90;;;;;;5011658;28;20485;-52
2021/05/02 07:34:02;;;;;;;3.90;3.07;;;6.90;99.90;;;;;;5004084;28;20468;-52
2021/05/02 07:36:29;;;;;;;4.40;3.47;;;6.80;99.90;;;;;;5001804;28;20462;-52
2021/05/02 07:38:55;;;;;;;5.10;3.87;;;7.00;99.90;;;;;;5005567;28;20465;-52
2021/05/02 07:41:23;;;;;;;4.17;3.27;;;6.90;99.90;;;;;;5003837;28;20477;-52
2021/05/02 07:43:49;;;;;;;5.20;3.63;;;7.10;99.90;;;;;;5005904;28;20485;-52
2021/05/02 07:46:16;;;;;;;3.20;2.90;;;6.90;99.90;;;;;;5004402;28;20461;-53
2021/05/02 07:48:42;;;;;;;5.20;3.17;;;6.90;99.90;;;;;;5008090;28;20488;-53
2021/05/02 07:51:10;;;;;;;4.90;3.30;;;7.00;99.90;;;;;;5006378;28;20540;-53
2021/05/02 07:53:37;;;;;;;5.30;3.33;;;7.00;99.90;;;;;;5010428;28;20493;-53
2021/05/02 07:56:04;;;;;;;4.20;3.30;;;7.00;99.90;;;;;;5005893;28;20475;-53
2021/05/02 07:58:31;;;;;;;5.07;3.50;;;7.00;99.90;;;;;;5005034;28;20485;-54
2021/05/02 08:00:58;;;;;;;4.27;3.43;;;7.10;99.90;;;;;;5010314;28;20489;-52
2021/05/02 08:03:25;;;;;;;4.17;3.47;;;7.10;99.90;;;;;;5005999;28;20500;-53
2021/05/02 08:05:51;;;;;;;3.90;3.03;;;7.20;99.90;;;;;;5005621;28;20470;-53
2021/05/02 08:08:18;;;;;;;4.30;3.83;;;7.30;99.90;;;;;;5005982;28;20468;-54
2021/05/02 08:10:45;;;;;;;3.93;3.00;;;7.30;99.90;;;;;;5004885;28;20539;-53
2021/05/02 08:13:16;;;;;;;3.60;3.30;;;7.40;99.90;;;;;;5004595;28;20462;-53
2021/05/02 08:15:43;;;;;;;3.80;3.37;;;7.50;99.90;;;;;;5005156;28;20457;-53
2021/05/02 08:18:09;;;;;;;3.30;3.00;;;7.50;99.90;;;;;;5008107;28;20476;-53
2021/05/02 08:20:36;;;;;;;4.37;3.80;;;7.50;99.90;;;;;;5011137;28;20462;-53
2021/05/02 08:23:03;;;;;;;4.17;3.60;;;7.50;99.90;;;;;;5011464;28;20581;-53
2021/05/02 08:25:29;;;;;;;3.80;3.33;;;7.60;99.90;;;;;;5010289;28;20985;-53
2021/05/02 08:27:56;;;;;;;3.73;3.33;;;7.70;99.90;;;;;;5009239;28;20470;-53
2021/05/02 08:30:22;;;;;;;3.80;3.20;;;7.80;99.90;;;;;;5007382;28;20466;-52
2021/05/02 08:32:50;;;;;;;4.10;3.60;;;7.80;99.90;;;;;;5007212;28;20449;-52
2021/05/02 08:35:17;;;;;;;4.20;3.80;;;7.90;99.90;;;;;;4996965;28;20826;-53
2021/05/02 08:37:43;;;;;;;4.90;4.17;;;7.90;99.90;;;;;;5013032;28;20455;-52
2021/05/02 08:40:11;;;;;;;4.33;3.80;;;7.90;99.90;;;;;;5012012;28;20457;-53
2021/05/02 08:42:38;;;;;;;4.37;3.93;;;7.90;99.90;;;;;;5012237;28;20491;-52
2021/05/02 08:45:06;;;;;;;4.20;3.70;;;7.90;99.90;;;;;;5010437;28;21050;-52
2021/05/02 08:47:35;;;;;;;4.57;3.57;;;8.00;99.90;;;;;;5012297;28;20476;-53
2021/05/02 08:50:06;;;;;;;4.40;4.00;;;8.00;99.90;;;;;;5013107;28;20492;-52
2021/05/02 08:52:32;;;;;;;4.03;3.63;;;8.00;99.90;;;;;;5011449;28;20485;-53
2021/05/02 08:55:01;;;;;;;4.20;3.60;;;7.80;99.90;;;;;;5012508;28;20947;-52
2021/05/02 08:57:27;;;;;;;4.30;3.90;;;8.00;99.90;;;;;;5009265;28;20493;-52
2021/05/02 08:59:54;;;;;;;4.70;3.93;;;8.20;99.90;;;;;;5007367;28;20446;-54
2021/05/02 09:02:24;;;;;;;3.73;3.40;;;8.10;99.90;;;;;;5009907;28;20489;-49
2021/05/02 09:04:52;;;;;;;4.60;3.80;;;8.20;99.90;;;;;;5012407;28;20441;-49
2021/05/02 09:07:19;;;;;;;4.77;4.07;;;8.10;99.90;;;;;;5007504;28;20469;-49
2021/05/02 09:09:50;;;;;;;4.93;4.43;;;8.30;99.90;;;;;;5012343;28;20449;-49
2021/05/02 09:12:22;;;;;;;7.03;4.60;;;8.10;99.90;;;;;;5006970;28;20566;-49
2021/05/02 09:14:49;;;;;;;5.80;4.80;;;8.10;99.90;;;;;;5011625;28;20464;-49
2021/05/02 09:17:20;;;;;;;4.70;4.00;;;7.80;99.90;;;;;;5011282;28;20842;-49
2021/05/02 09:19:49;;;;;;;5.00;4.50;;;7.80;99.90;;;;;;5011765;28;20464;-50
2021/05/02 09:22:17;;;;;;;5.00;4.00;;;7.80;99.90;;;;;;5010264;28;20486;-50
2021/05/02 09:24:59;;;;;;;5.80;4.93;;;7.90;99.90;;;;;;5011633;28;20545;-50
2021/05/02 09:27:26;;;;;;;6.17;4.87;;;7.90;99.90;;;;;;5009003;28;20453;-50
2021/05/02 09:29:53;;;;;;;5.10;4.50;;;8.00;99.90;;;;;;5011806;28;20450;-49
2021/05/02 09:32:38;;;;;;;4.80;4.30;;;8.10;99.90;;;;;;5009771;28;20480;-50
2021/05/02 09:35:22;;;;;;;4.77;4.30;;;8.10;99.90;;;;;;5001533;28;20556;-49
2021/05/02 09:37:48;;;;;;;5.73;4.80;;;8.20;99.90;;;;;;5009470;28;20449;-51
2021/05/02 09:40:18;;;;;;;5.80;4.30;;;8.30;99.90;;;;;;5009379;28;20456;-49
2021/05/02 09:42:48;;;;;;;4.80;4.27;;;8.20;99.90;;;;;;5009843;28;20568;-49
2021/05/02 09:45:15;;;;;;;5.50;4.30;;;8.40;99.90;;;;;;5009725;28;20453;-50
2021/05/02 09:47:43;;;;;;;5.70;4.67;;;8.40;99.90;;;;;;5006528;28;20465;-50
2021/05/02 09:50:13;;;;;;;7.27;5.80;;;8.40;99.90;;;;;;5001981;28;20465;-50
2021/05/02 09:52:41;;;;;;;8.37;5.53;;;8.50;99.90;;;;;;5004065;28;20500;-51
2021/05/02 09:55:27;;;;;;;8.30;6.80;;;8.70;99.90;;;;;;5007521;28;20834;-50
2021/05/02 09:57:58;;;;;;;7.37;6.00;;;8.80;99.90;;;;;;5001500;28;21028;-50
2021/05/02 10:00:33;;;;;;;9.80;5.30;;;9.10;99.90;;;;;;5002341;28;20605;-49
2021/05/02 10:03:02;;;;;;;6.37;5.33;;;9.10;99.90;;;;;;5002745;28;20481;-50
2021/05/02 10:05:29;;;;;;;5.67;4.80;;;9.00;99.90;;;;;;5003413;28;20555;-49
2021/05/02 10:07:56;;;;;;;5.20;4.70;;;9.10;99.90;;;;;;5005159;28;20465;-49
2021/05/02 10:10:23;;;;;;;4.50;4.10;;;9.10;99.90;;;;;;5009794;28;20466;-50
2021/05/02 10:12:51;;;;;;;4.90;4.00;;;8.90;99.90;;;;;;5010719;28;20523;-50
2021/05/02 10:15:19;;;;;;;4.70;4.30;;;8.80;99.90;;;;;;5009074;28;20461;-49
2021/05/02 10:17:49;;;;;;;5.00;4.20;;;8.90;99.90;;;;;;5010225;28;20461;-49
2021/05/02 10:20:15;;;;;;;5.57;4.80;;;9.10;99.90;;;;;;5007709;28;20852;-49
2021/05/02 10:22:42;;;;;;;5.17;4.50;;;9.20;99.90;;;;;;5010494;28;20493;-49
2021/05/02 10:25:12;;;;;;;4.53;3.83;;;9.20;99.90;;;;;;5006276;28;20975;-49
2021/05/02 10:27:48;;;;;;;3.10;2.80;;;9.10;99.90;;;;;;5003753;28;20449;-49
2021/05/02 10:30:28;;;;;;;3.17;2.67;;;9.40;99.90;;;;;;5005600;28;20531;-49
2021/05/02 10:33:02;;;;;;;3.20;2.47;;;9.70;99.90;;;;;;5001452;28;20461;-50
2021/05/02 10:35:43;;;;;;;3.80;3.30;;;9.60;99.90;;;;;;5009325;28;20465;-50
2021/05/02 10:38:10;;;;;;;2.30;2.10;;;9.60;99.90;;;;;;5006403;28;20466;-49
2021/05/02 10:40:39;;;;;;;3.17;2.87;;;9.80;99.90;;;;;;5011072;28;20469;-50
2021/05/02 10:43:09;;;;;;;3.77;3.40;;;9.80;99.90;;;;;;5006785;28;20500;-50
2021/05/02 10:45:47;;;;;;;3.67;3.37;;;9.90;99.90;;;;;;5013142;28;20476;-50
2021/05/02 10:48:36;;;;;;;3.70;3.40;;;9.60;99.90;;;;;;5011638;28;20560;-50
2021/05/02 10:51:23;;;;;;;3.57;3.27;;;9.80;99.90;;;;;;5009162;28;20470;-49
2021/05/02 10:54:05;;;;;;;4.90;4.07;;;9.80;99.90;;;;;;5013616;28;20464;-49
2021/05/02 10:56:51;;;;;;;3.40;3.10;;;9.90;99.90;;;;;;5006006;28;20523;-51
2021/05/02 10:59:19;;;;;;;3.40;3.10;;;9.90;99.90;;;;;;5010796;28;20469;-51
2021/05/02 11:01:46;;;;;;;4.23;3.07;;;10.00;99.90;;;;;;5005107;28;20499;-49
2021/05/02 11:04:13;;;;;;;3.60;3.30;;;10.30;99.90;;;;;;5006372;28;20550;-49
2021/05/02 11:06:57;;;;;;;4.03;3.50;;;10.40;99.90;;;;;;5007151;28;20465;-50
2021/05/02 11:09:37;;;;;;;3.30;2.83;;;10.60;99.90;;;;;;5010959;28;20468;-48
2021/05/02 11:12:29;;;;;;;3.07;2.83;;;10.80;99.90;;;;;;5008356;28;21021;-50
2021/05/02 11:14:56;;;;;;;2.87;2.67;;;10.90;99.90;;;;;;5004297;28;20496;-50
2021/05/02 11:17:37;;;;;;;3.17;2.97;;;11.10;99.90;;;;;;5005756;28;20469;-50
2021/05/02 11:20:04;;;;;;;2.63;2.43;;;11.30;99.90;;;;;;5006572;28;20468;-50
2021/05/02 11:22:47;;;;;;;2.20;2.00;;;11.50;99.90;;;;;;5006650;28;20493;-50
2021/05/02 11:25:16;;;;;;;2.17;2.03;;;11.80;99.90;;;;;;5012394;28;20449;-49
2021/05/02 11:30:33;;;;;;;2.83;2.63;;;12.10;99.90;;;;;;5005402;28;20466;-50
2021/05/02 11:33:01;;;;;;;3.00;2.80;;;12.00;99.90;;;;;;5006188;28;20461;-50
2021/05/02 11:35:52;;;;;;;3.50;3.20;;;12.00;99.90;;;;;;5008798;28;21027;-50
2021/05/02 11:38:20;;;;;;;4.03;3.70;;;12.00;99.90;;;;;;5006091;28;20515;-50
2021/05/02 11:40:47;;;;;;;4.47;3.77;;;12.30;99.90;;;;;;5008122;28;20873;-49
2021/05/02 11:43:16;;;;;;;4.07;3.67;;;12.30;99.90;;;;;;5005254;28;21006;-51
2021/05/02 11:45:49;;;;;;;5.00;4.10;;;12.30;99.90;;;;;;5002688;28;20467;-50
2021/05/02 11:48:24;;;;;;;4.60;4.20;;;12.20;99.90;;;;;;5010913;28;20503;-50
2021/05/02 11:50:55;;;;;;;4.17;3.77;;;12.10;99.90;;;;;;5012233;28;20573;-50
2021/05/02 11:53:32;;;;;;;4.80;4.33;;;12.10;99.90;;;;;;5005814;28;20561;-51
2021/05/02 11:55:58;;;;;;;4.13;3.77;;;12.30;99.90;;;;;;5005565;28;20515;-50
2021/05/02 11:58:25;;;;;;;4.13;3.73;;;12.10;99.90;;;;;;5005630;28;20860;-50
2021/05/02 12:00:52;;;;;;;4.10;3.70;;;12.20;99.90;;;;;;5005205;28;20493;-49
2021/05/02 12:03:33;;;;;;;4.20;3.90;;;12.00;99.90;;;;;;5005745;28;21499;-49
2021/05/02 12:05:59;;;;;;;4.53;4.13;;;12.30;99.90;;;;;;5008667;28;20468;-51
2021/05/02 12:08:27;;;;;;;5.80;4.73;;;12.20;99.90;;;;;;5006882;28;21138;-49
2021/05/02 12:10:55;;;;;;;4.73;4.33;;;12.20;99.90;;;;;;5005274;28;20969;-53
2021/05/02 12:13:31;;;;;;;4.83;4.40;;;12.10;99.90;;;;;;5005410;28;20989;-49
2021/05/02 12:16:10;;;;;;;4.60;3.73;;;12.30;99.90;;;;;;5007469;28;21009;-49
2021/05/02 12:18:49;;;;;;;4.70;4.30;;;12.50;99.90;;;;;;5010829;28;20472;-50
2021/05/02 12:21:18;;;;;;;5.83;5.23;;;12.20;99.90;;;;;;5005066;28;20485;-49
2021/05/02 12:23:45;;;;;;;4.40;4.00;;;12.00;99.90;;;;;;5004892;28;21214;-49
2021/05/02 12:26:14;;;;;;;5.60;5.00;;;11.90;99.90;;;;;;5005462;28;20970;-49
2021/05/02 12:28:41;;;;;;;6.63;5.43;;;12.10;99.90;;;;;;5004692;28;20736;-50
2021/05/02 12:31:11;;;;;;;6.30;5.70;;;12.20;99.90;;;;;;5004748;28;20485;-50
2021/05/02 12:33:39;;;;;;;6.30;5.70;;;12.00;99.90;;;;;;5004687;28;20993;-50
2021/05/02 12:36:08;;;;;;;6.30;5.67;;;12.10;99.90;;;;;;5006752;28;20461;-51
2021/05/02 12:38:35;;;;;;;6.70;5.87;;;12.10;99.90;;;;;;5005966;28;20476;-50
2021/05/02 12:41:02;;;;;;;5.90;5.23;;;12.20;99.90;;;;;;5008244;28;20488;-50
2021/05/02 12:43:32;;;;;;;7.30;6.23;;;12.30;99.90;;;;;;5004643;28;20485;-50
2021/05/02 12:45:59;;;;;;;6.27;5.43;;;12.10;99.90;;;;;;5003301;28;20462;-50
2021/05/02 12:48:29;;;;;;;7.60;5.80;;;12.20;99.90;;;;;;5004261;28;20465;-49
2021/05/02 12:50:58;;;;;;;6.77;5.70;;;12.00;99.90;;;;;;5005243;28;20620;-50
2021/05/02 12:53:37;;;;;;;7.13;6.10;;;12.40;99.90;;;;;;5005149;28;20839;-50
2021/05/02 12:56:04;;;;;;;6.53;5.90;;;12.60;99.90;;;;;;5005424;28;20548;-51
2021/05/02 12:58:39;;;;;;;7.33;6.57;;;12.60;99.90;;;;;;5006117;28;20474;-50
2021/05/02 13:01:16;;;;;;;7.77;6.80;;;12.70;99.90;;;;;;5004894;28;20489;-50
2021/05/02 13:03:53;;;;;;;7.53;6.73;;;12.90;99.90;;;;;;5004593;28;20924;-50
2021/05/02 13:06:20;;;;;;;6.93;6.23;;;12.80;99.90;;;;;;5004443;28;20492;-50
2021/05/02 13:08:55;;;;;;;8.23;6.67;;;12.80;99.90;;;;;;5004399;28;20458;-49